Handsom, Virginia
Current Conditions -  °F | °C
As of 10:55 AM on Wednesday 28 Jan 2015 (Local Time) from KFKN Reporting Station
Clear Clear  
Wind Chill: 25°   Ceiling: Unl
Heat Index: 33°   Visibility: 10mi
Dew Point:   Wind: 10mph
Humidity: 36%   Direction: 350°N
Pressure: 30.24"   Gusts: 17mph
Location:  36.6088°N, 77.0238°W
Report Text: KFKN 281555Z AUTO 35009G15KT 10SM CLR 01/M13 A3024 RMK AO2 T00071128
Loading
Personal Weather Stations






























Interactive Weather Map New forecast layout! Learn more

10-Day Weather Forecast

Advertisements
Track Severe Weather on mobile